Time;durP1;ratioP1;P1;durP2;ratioP2;P2;SDS_P1;SDS_P2;PMS_P1;PMS_P2;Temp;Humidity;BMP_temperature;BMP_pressure;BME280_temperature;BME280_humidity;BME280_pressure;Samples;Min_cycle;Max_cycle;Signal;HPM_P1;HPM_P2
2022/04/01 00:01:02;;;;;;;10.25;5.00;;;;;;;0.52;55.22;100695.64;1678804;84;21074;-92
2022/04/01 00:03:29;;;;;;;14.18;5.05;;;;;;;0.52;54.87;100702.53;1677874;85;21147;-85
2022/04/01 00:05:55;;;;;;;10.20;5.37;;;;;;;0.48;54.64;100689.78;1662343;84;21567;-85
2022/04/01 00:08:22;;;;;;;9.08;4.53;;;;;;;0.47;54.51;100693.19;1680041;84;21775;-86
2022/04/01 00:10:49;;;;;;;9.25;4.87;;;;;;;0.45;54.32;100699.04;1678098;84;21492;-85
2022/04/01 00:13:16;;;;;;;9.00;4.60;;;;;;;0.43;54.11;100701.94;1677872;84;21039;-84
2022/04/01 00:15:43;;;;;;;12.45;5.28;;;;;;;0.41;53.92;100695.77;1650776;85;21119;-90
2022/04/01 00:18:10;;;;;;;15.93;5.37;;;;;;;0.36;53.71;100698.95;1644593;85;21168;-85
2022/04/01 00:20:37;;;;;;;11.10;5.22;;;;;;;0.36;53.54;100696.77;1650651;85;22655;-85
2022/04/01 00:23:04;;;;;;;9.30;5.12;;;;;;;0.37;53.40;100695.96;1650932;86;21027;-92
2022/04/01 00:25:30;;;;;;;10.40;5.33;;;;;;;0.36;53.21;100698.07;1670540;85;21019;-91
2022/04/01 00:27:57;;;;;;;9.08;4.58;;;;;;;0.36;53.10;100707.13;1674907;84;21600;-91
2022/04/01 00:30:28;;;;;;;9.48;4.83;;;;;;;0.37;52.95;100698.14;1637673;84;21095;-86
2022/04/01 00:32:55;;;;;;;11.73;6.10;;;;;;;0.37;52.78;100703.31;1631751;86;21881;-87
2022/04/01 00:35:21;;;;;;;10.00;6.10;;;;;;;0.37;52.62;100705.02;1633244;86;21072;-86
2022/04/01 00:37:49;;;;;;;13.00;5.25;;;;;;;0.35;52.57;100704.91;1645285;86;21038;-91
2022/04/01 00:40:15;;;;;;;14.25;6.42;;;;;;;0.35;52.46;100702.73;1641843;86;21284;-91
2022/04/01 00:42:45;;;;;;;11.18;5.87;;;;;;;0.35;52.42;100702.73;1668461;85;21067;-91
2022/04/01 00:45:11;;;;;;;16.07;6.17;;;;;;;0.36;52.32;100704.14;1669188;85;21677;-92
2022/04/01 00:47:39;;;;;;;10.90;5.50;;;;;;;0.36;52.20;100701.55;1637546;86;21126;-93
2022/04/01 00:50:07;;;;;;;12.63;5.47;;;;;;;0.36;52.10;100705.84;1653297;85;21102;-91
2022/04/01 00:52:34;;;;;;;13.60;5.65;;;;;;;0.38;51.96;100695.18;1639336;86;21060;-85
2022/04/01 00:55:02;;;;;;;12.98;6.22;;;;;;;0.44;51.84;100703.74;1662449;85;21801;-83
2022/04/01 00:57:30;;;;;;;9.50;5.67;;;;;;;0.44;51.72;100700.74;1662140;84;21659;-83
2022/04/01 00:59:57;;;;;;;9.88;5.53;;;;;;;0.45;51.53;100692.56;1662442;84;21035;-82
2022/04/01 01:02:23;;;;;;;9.58;5.85;;;;;;;0.51;51.41;100702.94;1659943;85;21105;-83
2022/04/01 01:04:50;;;;;;;10.28;5.62;;;;;;;0.54;51.22;100704.41;1662346;85;21110;-83
2022/04/01 01:07:17;;;;;;;11.43;5.67;;;;;;;0.53;51.04;100693.57;1673262;84;21055;-83
2022/04/01 01:09:44;;;;;;;9.05;5.67;;;;;;;0.54;51.01;100703.11;1638933;85;21762;-89
2022/04/01 01:12:11;;;;;;;8.98;5.47;;;;;;;0.55;50.87;100704.03;1651121;85;21039;-90
2022/04/01 01:14:40;;;;;;;10.10;5.65;;;;;;;0.53;50.82;100696.56;1657469;85;21095;-90
2022/04/01 01:17:10;;;;;;;11.25;5.78;;;;;;;0.51;50.79;100695.16;1670116;84;21200;-85
2022/04/01 01:19:37;;;;;;;11.05;5.30;;;;;;;0.50;50.80;100701.53;1651448;85;21090;-84
2022/04/01 01:22:04;;;;;;;10.23;6.05;;;;;;;0.50;50.73;100696.36;1651286;85;21828;-85
2022/04/01 01:24:36;;;;;;;10.98;5.20;;;;;;;0.48;50.70;100700.55;1650793;85;21031;-90
2022/04/01 01:27:06;;;;;;;11.48;5.80;;;;;;;0.47;50.75;100695.77;1676081;85;21081;-88
2022/04/01 01:29:35;;;;;;;10.53;5.90;;;;;;;0.47;50.67;100693.56;1678518;85;21385;-89
2022/04/01 01:32:07;;;;;;;7.03;4.70;;;;;;;0.47;50.66;100694.85;1673592;84;21063;-89
2022/04/01 01:34:34;;;;;;;8.23;4.53;;;;;;;0.47;50.55;100699.66;1651151;85;21822;-89
2022/04/01 01:37:01;;;;;;;8.90;5.03;;;;;;;0.46;50.54;100699.14;1637378;85;21066;-88
2022/04/01 01:39:28;;;;;;;9.38;5.15;;;;;;;0.44;50.51;100698.16;1652280;85;21003;-87
2022/04/01 01:41:56;;;;;;;6.20;4.53;;;;;;;0.42;50.50;100694.58;1674375;83;21129;-88
2022/04/01 01:44:23;;;;;;;9.95;5.00;;;;;;;0.42;50.42;100694.98;1665057;85;21043;-88
2022/04/01 01:46:50;;;;;;;10.78;4.87;;;;;;;0.41;50.40;100693.17;1683006;84;22573;-88
2022/04/01 01:49:20;;;;;;;11.10;4.87;;;;;;;0.42;50.39;100695.87;1659606;86;21129;-83
2022/04/01 01:55:31;;;;;;;8.15;4.58;;;;;;;0.41;50.32;100691.88;1687802;85;21551;-89
2022/04/01 01:57:08;;;;;;;9.65;4.45;;;;;;;0.42;50.29;100694.98;1627087;85;21180;-87
2022/04/01 01:59:35;;;;;;;8.83;4.50;;;;;;;0.41;50.09;100693.17;1686769;83;21755;-82
2022/04/01 02:02:05;;;;;;;11.15;5.30;;;;;;;0.42;50.08;100687.21;1652361;84;21570;-88
2022/04/01 02:04:32;;;;;;;5.90;3.33;;;;;;;0.40;50.03;100688.41;1673733;85;21028;-90
2022/04/01 02:06:59;;;;;;;7.75;4.35;;;;;;;0.36;50.02;100687.30;1641992;85;21154;-90
2022/04/01 02:09:26;;;;;;;6.75;4.20;;;;;;;0.35;49.96;100684.61;1662181;84;21092;-89
2022/04/01 02:11:53;;;;;;;10.60;3.92;;;;;;;0.32;50.00;100686.98;1661965;86;21853;-89
2022/04/01 02:14:20;;;;;;;6.33;3.90;;;;;;;0.33;50.05;100688.80;1697999;83;21093;-90
2022/04/01 02:16:47;;;;;;;11.53;4.17;;;;;;;0.31;50.01;100681.33;1686167;83;21093;-92
2022/04/01 02:19:20;;;;;;;8.73;4.50;;;;;;;0.28;50.02;100676.86;1669119;84;21113;-82
2022/04/01 02:21:42;;;;;;;9.78;4.47;;;;;;;0.24;49.99;100683.91;1667903;85;21225;-83
2022/04/01 02:24:10;;;;;;;9.65;4.40;;;;;;;0.24;50.04;100690.38;1668610;85;21717;-83
2022/04/01 02:26:37;;;;;;;7.50;3.65;;;;;;;0.21;49.98;100685.39;1697738;83;21521;-84
2022/04/01 02:29:05;;;;;;;7.70;4.28;;;;;;;0.19;49.99;100691.80;1683496;84;21124;-83
2022/04/01 02:31:32;;;;;;;6.35;3.70;;;;;;;0.17;49.94;100691.69;1689055;83;21650;-83
2022/04/01 02:33:59;;;;;;;7.85;3.83;;;;;;;0.16;49.93;100691.17;1681296;84;21113;-83
2022/04/01 02:36:25;;;;;;;8.95;4.45;;;;;;;0.18;49.73;100693.46;1696355;83;21766;-84
2022/04/01 02:38:53;;;;;;;10.30;4.00;;;;;;;0.19;49.65;100703.03;1649022;86;21049;-84
2022/04/01 02:41:20;;;;;;;6.35;3.60;;;;;;;0.18;49.47;100695.16;1651260;85;21996;-90
2022/04/01 02:43:48;;;;;;;5.87;3.80;;;;;;;0.16;49.32;100692.47;1650808;86;21093;-91
2022/04/01 02:46:15;;;;;;;11.90;4.20;;;;;;;0.18;49.18;100692.58;1660506;85;21172;-92
2022/04/01 02:48:41;;;;;;;7.22;3.77;;;;;;;0.16;49.04;100692.47;1658028;85;21722;-91
2022/04/01 02:51:08;;;;;;;8.45;3.40;;;;;;;0.15;49.01;100688.11;1660473;86;21077;-90
2022/04/01 02:53:35;;;;;;;5.90;3.17;;;;;;;0.15;48.87;100691.98;1660913;86;21107;-90
2022/04/01 02:56:02;;;;;;;8.43;4.22;;;;;;;0.13;48.82;100690.08;1658882;86;21089;-90
2022/04/01 02:58:29;;;;;;;5.95;3.30;;;;;;;0.11;48.77;100691.30;1653407;86;21038;-90
2022/04/01 03:00:55;;;;;;;7.70;3.50;;;;;;;0.09;48.74;100686.39;1660984;85;21811;-91
2022/04/01 03:03:22;;;;;;;5.87;3.60;;;;;;;0.05;48.81;100692.56;1658533;86;21042;-90
2022/04/01 03:05:49;;;;;;;8.18;3.40;;;;;;;0.03;48.84;100694.16;1639652;86;21006;-90
2022/04/01 03:08:16;;;;;;;7.95;4.10;;;;;;;-0.01;48.95;100686.59;1658890;86;21317;-89
2022/04/01 03:10:43;;;;;;;8.85;5.00;;;;;;;-0.06;49.11;100684.09;1653865;86;21082;-90
2022/04/01 03:13:10;;;;;;;5.87;3.50;;;;;;;-0.07;49.26;100680.61;1650946;86;21750;-92
2022/04/01 03:15:37;;;;;;;7.42;3.95;;;;;;;-0.07;49.28;100686.19;1627264;86;21090;-89
2022/04/01 03:18:04;;;;;;;10.55;4.55;;;;;;;-0.10;49.28;100689.45;1628048;86;21057;-91
2022/04/01 03:20:33;;;;;;;9.10;4.60;;;;;;;-0.06;49.23;100697.91;1653754;86;21276;-91
2022/04/01 03:23:00;;;;;;;11.45;4.62;;;;;;;-0.05;49.17;100693.66;1636252;86;21113;-90
2022/04/01 03:25:32;;;;;;;12.98;4.78;;;;;;;-0.05;49.14;100693.66;1627049;86;22570;-90
2022/04/01 03:27:55;;;;;;;10.05;4.60;;;;;;;-0.04;49.05;100685.08;1626675;86;21180;-89
2022/04/01 03:30:22;;;;;;;9.33;4.50;;;;;;;-0.08;48.98;100684.39;1632153;86;21603;-89
2022/04/01 03:32:48;;;;;;;9.80;3.77;;;;;;;-0.10;49.01;100692.45;1640588;86;21048;-89
2022/04/01 03:35:17;;;;;;;7.22;4.17;;;;;;;-0.10;49.03;100692.45;1629726;86;21638;-90
2022/04/01 03:37:45;;;;;;;6.42;3.40;;;;;;;-0.13;49.09;100687.05;1662354;84;21686;-89
2022/04/01 03:40:14;;;;;;;7.42;3.40;;;;;;;-0.13;49.10;100688.34;1640263;86;21127;-90
2022/04/01 03:42:45;;;;;;;8.23;3.62;;;;;;;-0.16;49.19;100692.94;1660234;84;21093;-90
2022/04/01 03:45:12;;;;;;;6.58;3.10;;;;;;;-0.15;49.15;100697.33;1670139;85;21140;-89
2022/04/01 03:47:47;;;;;;;4.05;3.35;;;;;;;-0.10;49.08;100693.73;1669976;85;21039;-88
2022/04/01 03:50:14;;;;;;;7.30;3.15;;;;;;;-0.07;49.06;100701.31;1670393;85;22641;-84
2022/04/01 03:52:41;;;;;;;3.85;2.47;;;;;;;-0.05;48.90;100689.78;1670402;85;21126;-84
2022/04/01 03:55:12;;;;;;;5.08;2.40;;;;;;;-0.03;48.83;100697.23;1627248;86;21750;-87
2022/04/01 03:57:40;;;;;;;5.92;2.65;;;;;;;-0.03;48.82;100697.23;1676288;85;21197;-86
2022/04/01 04:00:17;;;;;;;5.33;2.62;;;;;;;-0.01;48.80;100691.77;1676009;85;21102;-85
2022/04/01 04:02:42;;;;;;;5.62;2.98;;;;;;;0.01;48.81;100699.64;1675221;85;22557;-89
2022/04/01 04:05:12;;;;;;;4.65;3.15;;;;;;;-0.01;48.81;100699.53;1670754;85;21089;-91
2022/04/01 04:07:40;;;;;;;7.50;2.80;;;;;;;-0.03;48.89;100699.83;1669458;85;21070;-94
2022/04/01 04:10:09;;;;;;;7.97;3.90;;;;;;;-0.04;48.99;100695.44;1678437;85;21163;-88
2022/04/01 04:12:35;;;;;;;6.30;3.08;;;;;;;-0.06;49.08;100700.50;1667741;84;21078;-92
2022/04/01 04:15:04;;;;;;;11.28;4.15;;;;;;;-0.08;49.11;100700.80;1678257;84;21754;-94
2022/04/01 04:17:49;;;;;;;9.10;4.15;;;;;;;-0.08;49.18;100699.91;1678701;84;21109;-93
2022/04/01 04:20:40;;;;;;;11.70;4.22;;;;;;;-0.08;49.23;100700.80;1681944;84;21032;-89
2022/04/01 04:23:15;;;;;;;9.08;4.28;;;;;;;-0.08;49.34;100698.21;1667066;85;21093;-91
2022/04/01 04:25:41;;;;;;;8.88;3.77;;;;;;;-0.08;49.45;100702.50;1673818;84;21070;-87
2022/04/01 04:28:12;;;;;;;10.82;3.62;;;;;;;-0.09;49.58;100699.02;1650566;85;21738;-88
2022/04/01 04:30:50;;;;;;;8.18;4.00;;;;;;;-0.07;49.71;100699.13;1655950;85;21157;-88
2022/04/01 04:33:20;;;;;;;6.60;2.80;;;;;;;-0.05;49.84;100701.42;1665388;84;21113;-91
2022/04/01 04:35:49;;;;;;;11.43;4.00;;;;;;;-0.04;49.98;100700.23;1660557;85;21545;-92
2022/04/01 04:38:20;;;;;;;9.33;3.77;;;;;;;-0.04;50.11;100700.61;1657121;84;21058;-88
2022/04/01 04:40:47;;;;;;;8.95;3.65;;;;;;;-0.02;50.29;100703.81;1673950;84;21811;-88
2022/04/01 04:43:18;;;;;;;7.25;3.30;;;;;;;0.02;50.48;100704.00;1643932;85;22241;-88
2022/04/01 04:45:43;;;;;;;6.47;3.87;;;;;;;0.05;50.62;100704.21;1664637;85;21114;-87
2022/04/01 04:48:09;;;;;;;9.13;3.65;;;;;;;0.11;50.74;100710.70;1657219;85;21066;-90
2022/04/01 04:50:36;;;;;;;8.45;4.70;;;;;;;0.17;50.85;100710.22;1660116;85;21141;-87
2022/04/01 04:53:03;;;;;;;11.75;4.03;;;;;;;0.24;50.94;100707.20;1678756;84;21727;-87
2022/04/01 04:55:30;;;;;;;7.03;3.85;;;;;;;0.33;51.04;100705.22;1676492;84;21094;-90
2022/04/01 04:57:56;;;;;;;12.50;4.30;;;;;;;0.43;51.08;100704.52;1639628;85;21035;-86
2022/04/01 05:00:28;;;;;;;10.35;4.80;;;;;;;0.49;51.13;100701.95;1671645;85;21097;-89
2022/04/01 05:03:20;;;;;;;6.85;4.53;;;;;;;0.60;51.15;100701.72;1655086;86;21090;-85
2022/04/01 05:05:56;;;;;;;7.47;3.60;;;;;;;0.67;51.15;100701.32;1675539;84;22610;-89
2022/04/01 05:08:44;;;;;;;12.15;5.95;;;;;;;0.82;51.09;100707.47;1659518;85;21089;-86
2022/04/01 05:11:41;;;;;;;8.58;5.12;;;;;;;0.93;50.98;100706.86;1663547;85;21050;-90
2022/04/01 05:14:22;;;;;;;9.85;4.28;;;;;;;1.03;50.79;100709.20;1666652;84;21130;-86
2022/04/01 05:19:46;;;;;;;8.33;4.12;;;;;;;1.28;50.33;100713.35;1669154;84;21753;-80
2022/04/01 05:22:16;;;;;;;9.45;4.65;;;;;;;1.42;50.19;100716.77;1640722;82;21125;-82
2022/04/01 05:24:52;;;;;;;11.03;4.05;;;;;;;1.53;50.01;100720.51;1668375;84;21455;-81
2022/04/01 05:27:30;;;;;;;8.88;4.90;;;;;;;1.65;49.85;100722.05;1673555;84;21098;-82
2022/04/01 05:30:17;;;;;;;14.85;6.03;;;;;;;1.78;49.83;100726.28;1676465;84;21038;-82
2022/04/01 05:33:18;;;;;;;12.93;5.95;;;;;;;1.89;49.88;100718.73;1667763;84;21078;-85
2022/04/01 05:35:51;;;;;;;11.05;4.87;;;;;;;2.00;49.84;100718.96;1629073;85;21110;-84
2022/04/01 05:38:15;;;;;;;13.18;7.62;;;;;;;2.10;49.72;100713.89;1682386;84;21106;-83
2022/04/01 05:40:44;;;;;;;11.88;4.20;;;;;;;2.18;49.70;100716.56;1677170;83;21039;-83
2022/04/01 05:43:10;;;;;;;10.70;4.72;;;;;;;2.30;49.45;100713.34;1674444;84;21637;-86
2022/04/01 05:45:37;;;;;;;9.60;4.08;;;;;;;2.37;49.39;100714.61;1662599;84;22406;-84
2022/04/01 05:48:04;;;;;;;8.98;4.37;;;;;;;2.48;49.15;100723.02;1644034;85;21130;-83
2022/04/01 05:50:30;;;;;;;11.03;4.05;;;;;;;2.58;49.00;100723.14;1673194;84;21623;-83
2022/04/01 05:53:00;;;;;;;11.12;4.25;;;;;;;2.62;48.66;100719.89;1667311;84;21058;-85
2022/04/01 05:55:27;;;;;;;10.68;4.83;;;;;;;2.65;48.49;100718.37;1671563;84;21117;-84
2022/04/01 05:57:57;;;;;;;10.65;4.90;;;;;;;2.78;48.55;100732.03;1671489;84;21712;-84
2022/04/01 06:00:23;;;;;;;17.02;5.95;;;;;;;2.80;48.23;100737.83;1676668;84;21054;-85
2022/04/01 06:03:20;;;;;;;17.70;5.67;;;;;;;2.85;48.28;100727.67;1670419;84;21082;-85
2022/04/01 06:05:58;;;;;;;20.62;7.87;;;;;;;2.87;48.08;100730.86;1677028;84;21081;-85
2022/04/01 06:09:02;;;;;;;12.98;5.40;;;;;;;2.96;48.20;100731.76;1638309;85;21176;-84
2022/04/01 06:12:00;;;;;;;7.00;3.58;;;;;;;2.98;47.94;100717.55;1667005;84;21777;-85
2022/04/01 06:14:47;;;;;;;8.98;4.97;;;;;;;3.18;47.70;100734.25;1667481;84;21619;-83
2022/04/01 06:17:40;;;;;;;8.93;3.17;;;;;;;3.23;47.58;100723.66;1670388;84;21140;-84
2022/04/01 06:20:07;;;;;;;8.70;3.67;;;;;;;3.33;46.88;100728.98;1634120;85;21325;-80
2022/04/01 06:22:37;;;;;;;5.90;3.40;;;;;;;3.26;46.37;100736.44;1635441;86;21055;-83
2022/04/01 06:25:18;;;;;;;8.73;3.00;;;;;;;3.31;46.28;100740.19;1646206;86;21792;-82
2022/04/01 06:27:42;;;;;;;6.60;3.27;;;;;;;3.37;46.01;100742.22;1638797;86;21564;-82
2022/04/01 06:30:17;;;;;;;10.93;2.72;;;;;;;3.45;45.88;100742.63;1635471;86;21142;-83
2022/04/01 06:33:18;;;;;;;8.30;3.55;;;;;;;3.49;45.84;100750.70;1631065;85;21167;-82
2022/04/01 06:35:59;;;;;;;8.95;5.00;;;;;;;3.55;45.82;100747.91;1635803;86;21649;-82
2022/04/01 06:38:41;;;;;;;8.83;3.98;;;;;;;3.61;45.92;100741.34;1635721;86;21641;-82
2022/04/01 06:41:20;;;;;;;7.80;3.47;;;;;;;3.62;45.91;100747.05;1635309;86;21151;-84
2022/04/01 06:43:48;;;;;;;9.28;3.37;;;;;;;3.66;45.74;100754.58;1648049;86;21072;-82
2022/04/01 06:46:14;;;;;;;6.85;3.90;;;;;;;3.58;45.72;100748.97;1636352;86;21083;-83
2022/04/01 06:48:41;;;;;;;12.82;3.45;;;;;;;3.57;45.73;100746.31;1647543;86;21579;-83
2022/04/01 06:51:08;;;;;;;10.45;2.95;;;;;;;3.60;45.63;100756.45;1626695;86;21772;-83
2022/04/01 06:53:36;;;;;;;8.13;2.77;;;;;;;3.59;45.19;100753.38;1630857;86;21122;-82
2022/04/01 06:56:13;;;;;;;7.55;3.60;;;;;;;3.61;45.17;100754.35;1636501;86;21692;-84
2022/04/01 06:58:40;;;;;;;11.73;3.62;;;;;;;3.62;44.71;100745.75;1630740;86;21158;-84
2022/04/01 07:01:07;;;;;;;12.40;3.40;;;;;;;3.55;44.38;100750.52;1626642;86;21126;-83
2022/04/01 07:03:35;;;;;;;8.68;3.33;;;;;;;3.51;44.40;100758.59;1630597;86;22561;-83
2022/04/01 07:06:06;;;;;;;7.70;3.45;;;;;;;3.48;44.42;100755.41;1626517;86;21351;-84
2022/04/01 07:08:33;;;;;;;5.90;3.00;;;;;;;3.46;44.03;100780.86;1607481;87;21109;-82
2022/04/01 07:11:01;;;;;;;7.90;2.62;;;;;;;3.45;43.96;100753.04;1633964;85;21194;-84
2022/04/01 07:13:29;;;;;;;7.40;2.33;;;;;;;3.37;42.96;100759.13;1643660;85;21606;-82
2022/04/01 07:15:56;;;;;;;5.03;2.35;;;;;;;3.26;43.08;100762.45;1644117;86;21766;-82
2022/04/01 07:18:22;;;;;;;7.00;2.45;;;;;;;3.23;42.86;100757.09;1649319;84;21701;-82
2022/04/01 07:20:49;;;;;;;6.40;2.80;;;;;;;3.22;42.89;100759.61;1661910;84;21913;-82
2022/04/01 07:23:16;;;;;;;5.35;2.55;;;;;;;3.24;42.85;100772.30;1667440;84;21098;-82
2022/04/01 07:25:42;;;;;;;6.83;2.17;;;;;;;3.26;42.76;100764.16;1661992;84;21083;-82
2022/04/01 07:28:09;;;;;;;15.83;2.42;;;;;;;3.28;42.40;100753.43;1661821;84;21771;-82
2022/04/01 07:30:37;;;;;;;8.60;3.77;;;;;;;3.33;41.90;100753.70;1642627;84;21094;-83
2022/04/01 07:33:04;;;;;;;10.65;4.30;;;;;;;3.37;41.84;100763.03;1661802;84;21549;-83
2022/04/01 07:35:31;;;;;;;9.08;3.62;;;;;;;3.41;42.17;100741.98;1661793;84;21167;-82
2022/04/01 07:37:58;;;;;;;11.45;3.80;;;;;;;3.42;42.23;100756.80;1661877;84;21094;-82
2022/04/01 07:40:25;;;;;;;6.30;3.85;;;;;;;3.51;41.82;100767.70;1661938;84;21780;-84
2022/04/01 07:42:52;;;;;;;10.72;4.33;;;;;;;3.47;42.14;100751.41;1661845;84;21416;-82
2022/04/01 07:45:20;;;;;;;12.88;3.27;;;;;;;3.48;41.95;100746.71;1665547;84;44178;-82
2022/04/01 07:47:48;;;;;;;5.25;2.87;;;;;;;3.48;41.46;100741.50;1644319;84;22299;-84
2022/04/01 07:50:15;;;;;;;7.65;2.60;;;;;;;3.48;41.29;100742.80;1661851;84;21145;-84
2022/04/01 07:52:43;;;;;;;6.08;2.70;;;;;;;3.45;41.19;100738.34;1654264;84;22572;-83
2022/04/01 07:55:11;;;;;;;7.97;2.55;;;;;;;3.55;41.21;100748.83;1651100;84;21154;-82
2022/04/01 07:57:38;;;;;;;5.28;2.77;;;;;;;3.63;41.29;100750.12;1642858;84;21059;-82
2022/04/01 08:00:06;;;;;;;12.10;2.83;;;;;;;3.69;41.09;100737.83;1661820;84;21102;-85
2022/04/01 08:02:33;;;;;;;9.85;3.35;;;;;;;3.70;40.39;100755.26;1661887;84;21690;-82
2022/04/01 08:04:59;;;;;;;4.20;2.35;;;;;;;3.69;40.37;100759.96;1662034;84;21755;-82
2022/04/01 08:07:27;;;;;;;5.87;2.22;;;;;;;3.70;40.08;100754.84;1656615;84;21172;-82
2022/04/01 08:09:54;;;;;;;5.35;2.30;;;;;;;3.70;40.24;100752.66;1662092;84;21200;-83
2022/04/01 08:12:21;;;;;;;6.33;2.30;;;;;;;3.73;40.42;100749.30;1662017;84;21098;-83
2022/04/01 08:14:47;;;;;;;7.75;1.85;;;;;;;3.74;39.97;100755.02;1661982;84;21337;-83
2022/04/01 08:17:15;;;;;;;10.65;2.17;;;;;;;3.74;40.22;100751.11;1662158;84;22437;-81
2022/04/01 08:20:05;;;;;;;13.98;2.35;;;;;;;3.70;39.91;100751.34;1663001;84;21035;-82
2022/04/01 08:22:57;;;;;;;;;;;;;;;;;;;;;
2022/04/01 08:25:13;;;;;;;5.65;2.10;;;;;;;3.55;39.51;100759.23;1625956;84;21245;-83
2022/04/01 08:27:47;;;;;;;8.40;2.67;;;;;;;3.52;39.82;100757.77;1688240;83;21586;-83
2022/04/01 08:30:15;;;;;;;8.58;3.20;;;;;;;3.53;39.61;100754.36;1687487;83;21082;-82
2022/04/01 08:32:42;;;;;;;8.85;2.50;;;;;;;3.55;38.95;100760.55;1688861;83;21575;-82
2022/04/01 08:35:09;;;;;;;7.53;2.45;;;;;;;3.49;39.05;100764.09;1688686;83;21094;-83
2022/04/01 08:37:37;;;;;;;14.95;3.80;;;;;;;3.47;39.04;100781.34;1688676;83;21059;-82
2022/04/01 08:40:12;;;;;;;10.75;4.90;;;;;;;3.47;38.72;100776.13;1688535;83;21577;-83
2022/04/01 08:42:40;;;;;;;15.78;3.90;;;;;;;3.38;38.74;100754.81;1670431;83;21763;-82
2022/04/01 08:45:09;;;;;;;13.53;3.75;;;;;;;3.38;38.54;100768.75;1663620;84;21088;-82
2022/04/01 08:47:38;;;;;;;10.90;3.83;;;;;;;3.34;38.69;100761.59;1688674;83;21111;-82
2022/04/01 08:50:14;;;;;;;7.00;3.70;;;;;;;3.41;38.88;100771.91;1687563;83;21066;-84
2022/04/01 08:56:28;;;;;;;10.40;4.00;;;;;;;3.34;39.15;100747.66;1573466;89;21107;-85
2022/04/01 08:58:57;;;;;;;7.53;3.87;;;;;;;3.51;39.17;100758.59;1552588;88;21578;-84
2022/04/01 09:02:19;;;;;;;10.18;4.50;;;;;;;3.48;39.12;100748.02;1547354;90;21228;-84
2022/04/01 09:15:09;;;;;;;9.50;2.45;;;;;;;3.62;38.77;100763.97;1377549;102;29104;-83
2022/04/01 09:17:46;;;;;;;5.55;2.00;;;;;;;3.74;38.84;100773.23;1406587;99;21096;-82
2022/04/01 09:20:14;;;;;;;4.08;1.85;;;;;;;3.80;38.40;100756.63;1421178;98;21576;-83
2022/04/01 09:22:42;;;;;;;7.08;2.15;;;;;;;3.79;38.17;100751.83;1422702;98;21244;-82
2022/04/01 09:25:16;;;;;;;6.33;2.12;;;;;;;3.76;37.77;100754.69;1521753;89;21775;-82
2022/04/01 09:27:50;;;;;;;2.62;1.77;;;;;;;3.73;37.24;100768.41;1569876;89;21172;-82
2022/04/01 09:30:20;;;;;;;6.28;2.10;;;;;;;3.69;37.51;100755.64;1569890;89;21835;-83
2022/04/01 09:32:51;;;;;;;8.03;2.40;;;;;;;3.68;37.45;100756.89;1580729;89;21209;-83
2022/04/01 09:35:22;;;;;;;3.00;2.05;;;;;;;3.73;37.53;100748.00;1614424;87;21169;-84
2022/04/01 09:37:50;;;;;;;4.97;1.90;;;;;;;3.76;37.04;100744.27;1620404;87;23683;-82
2022/04/01 09:40:20;;;;;;;3.95;1.65;;;;;;;3.77;36.92;100753.44;1620633;87;21147;-82
2022/04/01 09:42:49;;;;;;;11.65;2.55;;;;;;;3.74;36.86;100739.39;1620688;87;21154;-83
2022/04/01 09:45:26;;;;;;;8.85;2.17;;;;;;;3.77;37.19;100734.33;1657009;83;21097;-82
2022/04/01 09:48:12;;;;;;;6.17;2.85;;;;;;;3.85;37.16;100743.03;1671899;83;21099;-83
2022/04/01 09:50:41;;;;;;;5.62;1.98;;;;;;;3.86;36.86;100726.99;1688289;83;21864;-82
2022/04/01 09:53:19;;;;;;;4.53;2.00;;;;;;;3.92;37.15;100730.31;1688134;83;21098;-84
2022/04/01 09:55:50;;;;;;;4.50;1.98;;;;;;;3.99;37.26;100730.70;1687742;83;21063;-82
2022/04/01 09:58:20;;;;;;;2.87;1.70;;;;;;;4.06;36.40;100748.44;1688148;83;21616;-82
2022/04/01 10:00:47;;;;;;;4.15;2.35;;;;;;;4.08;36.45;100736.80;1688068;83;21495;-82
2022/04/01 10:03:15;;;;;;;3.22;1.60;;;;;;;4.07;36.52;100735.92;1688108;83;22450;-82
2022/04/01 10:05:42;;;;;;;9.05;2.12;;;;;;;4.04;36.06;100740.96;1688233;83;21182;-84
2022/04/01 10:11:16;;;;;;;7.22;2.20;;;;;;;3.91;35.93;100729.84;1652231;83;21110;-82
2022/04/01 10:14:31;;;;;;;8.63;2.10;;;;;;;3.83;36.24;100727.74;1659328;83;21107;-85
2022/04/01 10:17:08;;;;;;;6.45;2.02;;;;;;;3.86;36.32;100719.18;1633475;85;21153;-82
2022/04/01 10:19:44;;;;;;;8.55;1.72;;;;;;;3.92;35.79;100722.50;1658038;85;21171;-84
2022/04/01 10:22:16;;;;;;;6.37;2.25;;;;;;;3.89;36.05;100714.14;1614797;86;21682;-83
2022/04/01 10:24:56;;;;;;;5.50;2.00;;;;;;;3.93;36.20;100710.88;1632237;86;21176;-84
2022/04/01 10:27:40;;;;;;;;;;;;;;;4.02;36.52;100715.25;1634835;86;21077;-83
2022/04/01 10:30:13;;;;;;;6.60;3.00;;;;;;;4.14;36.31;100715.37;1632563;86;21706;-84
2022/04/01 10:32:45;;;;;;;4.70;2.10;;;;;;;4.24;36.20;100722.44;1643615;84;21099;-84
2022/04/01 10:35:28;;;;;;;6.85;2.50;;;;;;;4.22;36.33;100717.95;1662053;84;21106;-83
2022/04/01 10:38:09;;;;;;;6.65;2.25;;;;;;;4.22;36.29;100715.34;1661951;84;21907;-82
2022/04/01 10:40:38;;;;;;;5.30;2.10;;;;;;;4.32;36.46;100716.69;1666545;84;21780;-82
2022/04/01 10:43:24;;;;;;;3.50;1.75;;;;;;;4.36;35.98;100711.72;1662033;84;21777;-84
2022/04/01 10:46:01;;;;;;;5.58;3.30;;;;;;;4.35;36.07;100718.16;1661350;84;21272;-83
2022/04/01 10:51:37;;;;;;;5.75;2.58;;;;;;;4.27;35.96;100722.98;1645372;84;21107;-83
2022/04/01 10:54:14;;;;;;;3.20;1.70;;;;;;;4.19;35.56;100716.09;1662061;84;21611;-83
2022/04/01 10:57:00;;;;;;;5.00;2.02;;;;;;;4.17;36.03;100708.61;1662031;84;22665;-83
2022/04/01 10:59:48;;;;;;;5.20;2.30;;;;;;;4.32;36.33;100712.78;1635783;84;21114;-84
2022/04/01 11:02:24;;;;;;;4.42;1.62;;;;;;;4.41;35.75;100710.24;1539476;90;21134;-84
2022/04/01 11:04:53;;;;;;;6.65;2.27;;;;;;;4.38;35.58;100704.87;1567995;90;21152;-82
2022/04/01 11:07:29;;;;;;;4.33;1.85;;;;;;;4.37;36.02;100713.91;1564772;90;21195;-82
2022/04/01 11:10:04;;;;;;;5.75;2.17;;;;;;;4.33;35.73;100717.19;1603747;84;21612;-83
2022/04/01 11:12:38;;;;;;;3.95;1.87;;;;;;;4.18;35.27;100727.73;1661686;84;21118;-83
2022/04/01 11:15:08;;;;;;;4.15;1.92;;;;;;;4.09;36.13;100721.64;1662130;84;22073;-84
2022/04/01 11:17:41;;;;;;;5.55;2.00;;;;;;;4.06;35.98;100713.28;1662161;84;21121;-83
2022/04/01 11:20:27;;;;;;;4.22;1.80;;;;;;;4.01;35.98;100707.34;1655235;84;21655;-83
2022/04/01 11:23:00;;;;;;;3.10;1.77;;;;;;;3.97;35.69;100735.36;1632871;86;22023;-83
2022/04/01 11:25:36;;;;;;;7.78;1.82;;;;;;;3.92;36.56;100713.39;1644091;86;21180;-83
2022/04/01 11:28:10;;;;;;;5.10;1.67;;;;;;;3.89;37.70;100707.63;1633658;86;21102;-87
2022/04/01 11:30:47;;;;;;;3.98;1.98;;;;;;;3.99;38.29;100711.59;1625411;86;21707;-83
2022/04/01 11:33:18;;;;;;;6.60;1.80;;;;;;;4.03;38.36;100714.41;1643500;85;21114;-83
2022/04/01 11:35:48;;;;;;;7.92;2.50;;;;;;;3.89;38.38;100703.31;1646031;86;22707;-83
2022/04/01 11:38:21;;;;;;;3.87;1.70;;;;;;;3.99;39.01;100715.08;1643581;86;21061;-82
2022/04/01 11:40:50;;;;;;;6.92;1.55;;;;;;;4.02;38.54;100742.59;1659047;83;21195;-84
2022/04/01 11:43:21;;;;;;;5.35;1.70;;;;;;;4.02;38.75;100694.41;1635837;85;21156;-82
2022/04/01 11:45:57;;;;;;;12.20;2.40;;;;;;;4.05;38.80;100711.89;1639986;86;21085;-82
2022/04/01 11:48:33;;;;;;;3.37;1.55;;;;;;;4.03;38.70;100692.69;1633967;86;23047;-82
2022/04/01 11:51:14;;;;;;;6.28;1.70;;;;;;;3.97;38.56;100706.30;1646819;86;21137;-83
2022/04/01 11:53:47;;;;;;;13.93;2.17;;;;;;;3.85;38.53;100709.18;1633430;86;21198;-83
2022/04/01 11:56:13;;;;;;;7.80;1.77;;;;;;;3.83;38.96;100706.91;1632347;86;21114;-84
2022/04/01 11:58:58;;;;;;;5.15;1.95;;;;;;;3.83;39.07;100705.61;1633709;86;21155;-82
2022/04/01 12:01:31;;;;;;;6.22;2.20;;;;;;;3.83;39.19;100711.20;1616882;87;21576;-84
2022/04/01 12:04:07;;;;;;;4.78;1.87;;;;;;;3.76;39.12;100705.22;1633379;86;21640;-82
2022/04/01 12:09:34;;;;;;;4.92;1.87;;;;;;;3.69;39.12;100700.97;1633195;86;21278;-84
2022/04/01 12:12:04;;;;;;;4.03;1.98;;;;;;;3.73;39.56;100689.02;1645224;86;21050;-82
2022/04/01 12:14:33;;;;;;;4.35;1.90;;;;;;;3.76;40.04;100702.20;1658970;85;21848;-82
2022/04/01 12:17:08;;;;;;;9.10;1.90;;;;;;;3.86;40.54;100702.25;1643418;85;21079;-82
2022/04/01 12:19:34;;;;;;;10.98;3.15;;;;;;;3.93;40.69;100722.59;1658284;85;21081;-82